createdAt,value
2016-08-09T00:01:22.622Z,1009.49
2016-08-09T00:16:22.749Z,1009.36
2016-08-09T00:31:22.668Z,1009.43
2016-08-09T00:46:22.673Z,1009.31
2016-08-09T01:01:22.657Z,1009.35
2016-08-09T01:16:34.102Z,1009.2
2016-08-09T01:31:28.685Z,1009.13
2016-08-09T01:46:28.998Z,1009.27
2016-08-09T02:01:27.651Z,1009.37
2016-08-09T02:16:27.706Z,1009.32
2016-08-09T02:31:39.908Z,1009.25
2016-08-09T02:46:28.925Z,1009.26
2016-08-09T03:01:22.714Z,1009.15
2016-08-09T03:16:22.727Z,1009.21
2016-08-09T03:31:22.739Z,1009.3
2016-08-09T03:46:35.805Z,1009.23
2016-08-09T04:01:29.070Z,1009.34
2016-08-09T04:16:22.754Z,1009.5
2016-08-09T04:31:22.779Z,1009.65
2016-08-09T04:46:22.779Z,1009.44
2016-08-09T05:01:22.824Z,1009.48
2016-08-09T05:16:22.785Z,1009.41
2016-08-09T05:31:24.799Z,1009.57
2016-08-09T05:46:27.783Z,1009.6
2016-08-09T06:01:24.863Z,1009.58
2016-08-09T06:16:33.063Z,1009.64
2016-08-09T06:31:22.835Z,1009.7
2016-08-09T06:46:27.435Z,1009.84
2016-08-09T07:01:31.020Z,1009.73
2016-08-09T07:16:22.864Z,1009.7
2016-08-09T07:31:22.881Z,1009.58
2016-08-09T07:46:22.884Z,1009.76
2016-08-09T08:01:22.894Z,1009.49
2016-08-09T08:16:22.946Z,1009.18
2016-08-09T08:31:22.920Z,1009.27
2016-08-09T08:46:27.865Z,1009.57
2016-08-09T09:01:27.875Z,1009.23
2016-08-09T09:16:29.218Z,1009.1
2016-08-09T09:31:27.898Z,1009.02
2016-08-09T09:46:22.973Z,1009.08
2016-08-09T10:01:27.085Z,1009.32
2016-08-09T10:16:29.256Z,1009.31
2016-08-09T10:31:29.106Z,1009.68
2016-08-09T10:46:35.721Z,1011.19
2016-08-09T11:01:23.025Z,1108.3
2016-08-09T11:16:29.376Z,1108.3
2016-08-09T11:31:23.028Z,1108.32
2016-08-09T11:46:23.035Z,1108.28
2016-08-09T12:01:27.988Z,1108.3
2016-08-09T12:16:29.431Z,1108.26
2016-08-09T12:31:25.066Z,1337.13
2016-08-09T12:46:28.017Z,1018.76
2016-08-09T13:01:23.081Z,1018.69
2016-08-09T13:16:23.074Z,1018.03
2016-08-09T13:31:23.141Z,1018.85
2016-08-09T13:46:27.846Z,1018.38
2016-08-09T14:01:23.107Z,1018.03
2016-08-09T14:16:31.242Z,1018.82
2016-08-09T14:31:23.179Z,1019.02
2016-08-09T14:46:31.359Z,1019.79
2016-08-09T15:01:27.735Z,1020.41
2016-08-09T15:16:27.746Z,1020.07
2016-08-09T15:31:23.208Z,1020.42
2016-08-09T15:46:27.752Z,1020.26
2016-08-09T16:01:29.219Z,1020.78
2016-08-09T16:16:23.183Z,1021.58
2016-08-09T16:31:34.391Z,1022.23
2016-08-09T16:46:23.197Z,1023.57
2016-08-09T17:01:28.038Z,1024.41
2016-08-09T17:16:23.207Z,1030.62
2016-08-09T17:31:23.221Z,1034.11
2016-08-09T17:46:23.285Z,1037.47
2016-08-09T18:01:23.236Z,1080.97
2016-08-09T18:16:27.843Z,1160.97
2016-08-09T18:31:27.860Z,1108.3
2016-08-09T18:46:27.890Z,1108.28
2016-08-09T19:01:27.866Z,1108.24
2016-08-09T19:16:25.291Z,1108.24
2016-08-09T19:31:27.931Z,1108.3
2016-08-09T19:46:27.924Z,1108.28
2016-08-09T20:01:27.908Z,1108.24
2016-08-09T20:16:33.776Z,1108.28
2016-08-09T20:31:29.526Z,1108.33
2016-08-09T20:46:25.358Z,1108.28
2016-08-09T21:01:32.009Z,1108.26
2016-08-09T21:16:27.941Z,1108.3
2016-08-09T21:31:27.958Z,1108.3
2016-08-09T21:46:25.369Z,1108.3
2016-08-09T22:01:28.410Z,1108.3
2016-08-09T22:16:29.722Z,1108.24
2016-08-09T22:31:29.597Z,1108.3
2016-08-09T22:46:23.395Z,1108.22
2016-08-09T23:01:36.425Z,1108.32
2016-08-09T23:16:36.183Z,1108.28
2016-08-09T23:31:23.426Z,1108.28
2016-08-09T23:46:37.973Z,1108.26
